Time;durP1;ratioP1;P1;durP2;ratioP2;P2;SDS_P1;SDS_P2;PMS_P1;PMS_P2;Temp;Humidity;BMP_temperature;BMP_pressure;BME280_temperature;BME280_humidity;BME280_pressure;Samples;Min_cycle;Max_cycle;Signal;HPM_P1;HPM_P2
2021/06/24 00:00:07;;;;;;;16.63;15.13;;;;;;;;;;4989439;28;20229;-58
2021/06/24 00:02:32;;;;;;;17.97;16.43;;;;;;;;;;4989829;28;20204;-58
2021/06/24 00:04:57;;;;;;;16.13;14.93;;;;;;;;;;4988465;28;20200;-58
2021/06/24 00:07:23;;;;;;;16.50;15.20;;;;;;;;;;4989799;28;20187;-59
2021/06/24 00:09:48;;;;;;;19.00;17.40;;;;;;;;;;4991677;28;20573;-59
2021/06/24 00:12:13;;;;;;;20.00;18.17;;;;;;;;;;4982031;28;20239;-59
2021/06/24 00:14:38;;;;;;;19.83;18.00;;;;;;;;;;4981886;28;20292;-59
2021/06/24 00:17:04;;;;;;;21.67;19.87;;;;;;;;;;4988639;28;20683;-58
2021/06/24 00:19:29;;;;;;;20.73;18.70;;;;;;;;;;4989682;28;20185;-57
2021/06/24 00:21:54;;;;;;;20.40;18.33;;;;;;;;;;4988238;28;20376;-57
2021/06/24 00:24:19;;;;;;;21.97;19.97;;;;;;;;;;4989523;28;20271;-57
2021/06/24 00:26:44;;;;;;;20.80;19.15;;;;;;;;;;4990068;28;20698;-56
2021/06/24 00:29:10;;;;;;;22.57;20.60;;;;;;;;;;4988870;28;20182;-56
2021/06/24 00:31:35;;;;;;;21.23;19.27;;;;;;;;;;4989389;28;20176;-56
2021/06/24 00:34:00;;;;;;;23.50;21.50;;;;;;;;;;4989566;28;20264;-56
2021/06/24 00:36:25;;;;;;;25.27;23.13;;;;;;;;;;4989897;28;20206;-56
2021/06/24 00:38:50;;;;;;;25.70;23.30;;;;;;;;;;4989296;28;20186;-56
2021/06/24 00:41:15;;;;;;;24.03;21.93;;;;;;;;;;4989325;28;20174;-56
2021/06/24 00:43:41;;;;;;;25.90;23.70;;;;;;;;;;4988915;28;20241;-56
2021/06/24 00:46:06;;;;;;;25.40;23.10;;;;;;;;;;4990964;28;20183;-56
2021/06/24 00:48:31;;;;;;;24.93;22.77;;;;;;;;;;4989238;28;20250;-55
2021/06/24 00:50:57;;;;;;;25.33;23.00;;;;;;;;;;4985347;28;20171;-56
2021/06/24 00:53:22;;;;;;;24.57;22.57;;;;;;;;;;4988473;28;20318;-55
2021/06/24 00:55:47;;;;;;;25.40;23.27;;;;;;;;;;4988329;28;20185;-55
2021/06/24 00:58:12;;;;;;;24.73;22.70;;;;;;;;;;4989011;28;20608;-54
2021/06/24 01:00:37;;;;;;;25.63;23.20;;;;;;;;;;4987654;28;20175;-54
2021/06/24 01:03:02;;;;;;;26.57;23.90;;;;;;;;;;4988710;28;20205;-54
2021/06/24 01:05:28;;;;;;;23.87;21.57;;;;;;;;;;4988893;28;20182;-54
2021/06/24 01:07:53;;;;;;;27.93;25.23;;;;;;;;;;4988767;28;20178;-54
2021/06/24 01:10:18;;;;;;;27.23;24.63;;;;;;;;;;4988688;28;20202;-55
2021/06/24 01:12:43;;;;;;;25.57;23.43;;;;;;;;;;4988572;28;20241;-55
2021/06/24 01:15:09;;;;;;;26.67;23.97;;;;;;;;;;4988487;28;20393;-56
2021/06/24 01:17:34;;;;;;;28.33;25.73;;;;;;;;;;4988247;28;20175;-56
2021/06/24 01:19:59;;;;;;;28.17;25.20;;;;;;;;;;4986309;28;20187;-56
2021/06/24 01:22:24;;;;;;;26.30;24.00;;;;;;;;;;4982894;28;20174;-56
2021/06/24 01:24:49;;;;;;;29.47;26.70;;;;;;;;;;4984933;28;20292;-55
2021/06/24 01:27:15;;;;;;;25.20;23.00;;;;;;;;;;4987273;28;20172;-55
2021/06/24 01:29:40;;;;;;;26.70;24.10;;;;;;;;;;4988027;28;20186;-55
2021/06/24 01:32:05;;;;;;;31.40;28.30;;;;;;;;;;4970801;28;20173;-54
2021/06/24 01:34:30;;;;;;;28.90;26.23;;;;;;;;;;4988165;28;20267;-54
2021/06/24 01:36:56;;;;;;;32.93;29.70;;;;;;;;;;4988499;28;20177;-55
2021/06/24 01:39:21;;;;;;;30.73;27.80;;;;;;;;;;4988440;28;20192;-54
2021/06/24 01:41:52;;;;;;;29.05;26.25;;;;;;;;;;4987194;28;20180;-54
2021/06/24 01:44:28;;;;;;;28.63;25.87;;;;;;;;;;4987913;28;20520;-54
2021/06/24 01:46:53;;;;;;;28.30;25.57;;;;;;;;;;4988374;28;20604;-54
2021/06/24 01:49:18;;;;;;;27.93;25.20;;;;;;;;;;4988164;28;20616;-54
2021/06/24 01:51:44;;;;;;;29.90;27.10;;;;;;;;;;4987361;28;20304;-54
2021/06/24 01:54:09;;;;;;;31.35;28.15;;;;;;;;;;4987137;28;20217;-54
2021/06/24 01:56:36;;;;;;;30.75;27.55;;;;;;;;;;4987500;28;20185;-54
2021/06/24 01:59:01;;;;;;;30.20;27.60;;;;;;;;;;4987184;28;20190;-53
2021/06/24 02:01:26;;;;;;;26.88;24.58;;;;;;;;;;4987769;28;20606;-54
2021/06/24 02:03:51;;;;;;;31.17;27.73;;;;;;;;;;4987955;28;20205;-54
2021/06/24 02:06:16;;;;;;;29.33;26.50;;;;;;;;;;4987209;28;20178;-55
2021/06/24 02:08:42;;;;;;;27.15;24.58;;;;;;;;;;4987022;28;20324;-54
2021/06/24 02:11:07;;;;;;;27.20;24.83;;;;;;;;;;4986954;28;21089;-54
2021/06/24 02:13:32;;;;;;;28.07;25.47;;;;;;;;;;4988309;28;20199;-55
2021/06/24 02:15:57;;;;;;;32.83;29.70;;;;;;;;;;4987975;28;20593;-54
2021/06/24 02:18:22;;;;;;;32.37;29.30;;;;;;;;;;4987910;28;20501;-54
2021/06/24 02:20:48;;;;;;;26.42;24.00;;;;;;;;;;4986880;28;20214;-55
2021/06/24 02:23:13;;;;;;;26.58;23.90;;;;;;;;;;4987314;28;20217;-54
2021/06/24 02:25:38;;;;;;;27.03;24.63;;;;;;;;;;4987094;28;20847;-55
2021/06/24 02:28:04;;;;;;;28.67;25.97;;;;;;;;;;4987464;28;20179;-54
2021/06/24 02:30:29;;;;;;;31.13;28.13;;;;;;;;;;4987758;28;20173;-54
2021/06/24 02:32:54;;;;;;;30.83;27.60;;;;;;;;;;4987026;28;20670;-55
2021/06/24 02:35:23;;;;;;;31.07;28.07;;;;;;;;;;4987011;28;20197;-54
2021/06/24 02:37:48;;;;;;;28.43;25.73;;;;;;;;;;4986953;28;20651;-55
2021/06/24 02:40:14;;;;;;;28.87;25.97;;;;;;;;;;4986302;28;20619;-55
2021/06/24 02:42:40;;;;;;;28.20;25.63;;;;;;;;;;4987479;28;20638;-54
2021/06/24 02:45:06;;;;;;;26.73;23.97;;;;;;;;;;4987211;28;20616;-55
2021/06/24 02:47:32;;;;;;;31.30;26.97;;;;;;;;;;4987611;28;20230;-55
2021/06/24 02:49:57;;;;;;;31.73;28.65;;;;;;;;;;4987452;28;20614;-55
2021/06/24 02:52:22;;;;;;;31.83;28.63;;;;;;;;;;4987137;28;20183;-55
2021/06/24 02:54:49;;;;;;;26.42;24.17;;;;;;;;;;4986572;28;20239;-55
2021/06/24 02:57:15;;;;;;;30.97;27.97;;;;;;;;;;4987335;28;20247;-55
2021/06/24 02:59:40;;;;;;;26.60;24.13;;;;;;;;;;4987124;28;20613;-55
2021/06/24 03:02:05;;;;;;;30.15;27.23;;;;;;;;;;4987186;28;20186;-55
2021/06/24 03:04:30;;;;;;;29.00;26.00;;;;;;;;;;4987035;28;20208;-58
2021/06/24 03:06:55;;;;;;;29.17;26.10;;;;;;;;;;4985808;28;20909;-55
2021/06/24 03:09:20;;;;;;;26.40;24.10;;;;;;;;;;4987783;28;20534;-55
2021/06/24 03:11:46;;;;;;;26.48;23.75;;;;;;;;;;4986769;28;20642;-55
2021/06/24 03:14:11;;;;;;;29.67;26.67;;;;;;;;;;4987122;28;20179;-56
2021/06/24 03:16:37;;;;;;;27.80;25.23;;;;;;;;;;4986444;28;20233;-56
2021/06/24 03:19:02;;;;;;;27.43;24.93;;;;;;;;;;4986314;28;20185;-56
2021/06/24 03:21:27;;;;;;;28.95;26.05;;;;;;;;;;4983353;28;20191;-56
2021/06/24 03:23:52;;;;;;;26.13;23.57;;;;;;;;;;4985094;28;20216;-57
2021/06/24 03:26:20;;;;;;;30.00;27.00;;;;;;;;;;4985199;28;20234;-57
2021/06/24 03:28:46;;;;;;;26.30;24.03;;;;;;;;;;4984461;28;20181;-57
2021/06/24 03:31:11;;;;;;;27.08;24.42;;;;;;;;;;4985713;28;20718;-57
2021/06/24 03:33:36;;;;;;;33.93;29.40;;;;;;;;;;4986563;28;20233;-57
2021/06/24 03:36:02;;;;;;;32.27;29.17;;;;;;;;;;4987223;28;20185;-57
2021/06/24 03:38:27;;;;;;;30.10;27.10;;;;;;;;;;4986561;28;20186;-57
2021/06/24 03:40:52;;;;;;;29.52;25.70;;;;;;;;;;4989530;28;20177;-57
2021/06/24 03:43:18;;;;;;;27.50;24.97;;;;;;;;;;4991071;28;20273;-57
2021/06/24 03:45:43;;;;;;;26.67;24.17;;;;;;;;;;4989312;28;20206;-57
2021/06/24 03:48:08;;;;;;;28.10;25.67;;;;;;;;;;4986421;28;20237;-57
2021/06/24 03:50:34;;;;;;;26.83;24.33;;;;;;;;;;4989861;28;20171;-57
2021/06/24 03:52:59;;;;;;;26.93;24.60;;;;;;;;;;4989774;28;20196;-57
2021/06/24 03:58:22;;;;;;;30.47;27.67;;;;;;;;;;4942277;28;20179;-56
2021/06/24 04:00:48;;;;;;;28.33;25.83;;;;;;;;;;4989821;28;20612;-55
2021/06/24 04:03:13;;;;;;;31.30;28.50;;;;;;;;;;4988572;28;20603;-56
2021/06/24 04:05:38;;;;;;;26.60;24.27;;;;;;;;;;4989539;28;20189;-56
2021/06/24 04:08:05;;;;;;;29.33;26.43;;;;;;;;;;4990243;28;20639;-55
2021/06/24 04:10:31;;;;;;;28.43;25.73;;;;;;;;;;4988011;28;20187;-55
2021/06/24 04:12:56;;;;;;;30.17;27.13;;;;;;;;;;4989538;28;20718;-55
2021/06/24 04:15:22;;;;;;;34.53;30.97;;;;;;;;;;4989844;28;20173;-55
2021/06/24 04:17:47;;;;;;;36.10;31.07;;;;;;;;;;4989900;28;20192;-55
2021/06/24 04:20:12;;;;;;;28.30;25.80;;;;;;;;;;4989799;28;20178;-56
2021/06/24 04:22:37;;;;;;;28.77;26.30;;;;;;;;;;4989601;28;20176;-56
2021/06/24 04:25:03;;;;;;;32.28;29.17;;;;;;;;;;4988251;28;20213;-57
2021/06/24 04:27:28;;;;;;;29.53;26.70;;;;;;;;;;4989204;28;20187;-57
2021/06/24 04:29:53;;;;;;;30.50;27.90;;;;;;;;;;4989139;28;20179;-56
2021/06/24 04:32:18;;;;;;;29.00;26.40;;;;;;;;;;4989705;28;20176;-57
2021/06/24 04:34:43;;;;;;;29.75;27.10;;;;;;;;;;4989079;28;20181;-56
2021/06/24 04:37:08;;;;;;;31.75;28.85;;;;;;;;;;4989362;28;20173;-56
2021/06/24 04:39:34;;;;;;;28.13;25.60;;;;;;;;;;4987864;28;20283;-57
2021/06/24 04:41:59;;;;;;;31.50;28.70;;;;;;;;;;4998580;28;20638;-56
2021/06/24 04:44:24;;;;;;;32.83;29.67;;;;;;;;;;4989527;28;20253;-56
2021/06/24 04:46:49;;;;;;;27.08;24.75;;;;;;;;;;4988955;28;20652;-56
2021/06/24 04:49:16;;;;;;;33.75;30.55;;;;;;;;;;4989279;28;20827;-56
2021/06/24 04:51:42;;;;;;;27.53;25.00;;;;;;;;;;4988453;28;20178;-56
2021/06/24 04:54:07;;;;;;;28.63;26.10;;;;;;;;;;4989308;28;20614;-56
2021/06/24 04:56:32;;;;;;;28.00;25.40;;;;;;;;;;4988363;28;20283;-56
2021/06/24 04:58:57;;;;;;;30.47;27.40;;;;;;;;;;4989246;28;20178;-55
2021/06/24 05:01:22;;;;;;;28.38;25.85;;;;;;;;;;4989133;28;20193;-56
2021/06/24 05:03:48;;;;;;;29.83;27.23;;;;;;;;;;4987320;28;20229;-56
2021/06/24 05:06:16;;;;;;;28.38;25.92;;;;;;;;;;4986918;28;20628;-56
2021/06/24 05:08:41;;;;;;;26.90;24.60;;;;;;;;;;4988803;28;20186;-56
2021/06/24 05:11:06;;;;;;;29.27;26.93;;;;;;;;;;4988362;28;20628;-55
2021/06/24 05:13:32;;;;;;;29.37;26.80;;;;;;;;;;4985019;28;20199;-54
2021/06/24 05:15:57;;;;;;;27.43;25.20;;;;;;;;;;4988193;28;20276;-55
2021/06/24 05:18:23;;;;;;;30.00;27.20;;;;;;;;;;4987981;28;20253;-55
2021/06/24 05:20:48;;;;;;;31.27;28.23;;;;;;;;;;4984697;28;20868;-55
2021/06/24 05:23:15;;;;;;;31.73;28.63;;;;;;;;;;4985850;28;20217;-55
2021/06/24 05:25:41;;;;;;;26.40;24.20;;;;;;;;;;4985741;28;20187;-55
2021/06/24 05:28:06;;;;;;;32.57;29.37;;;;;;;;;;4984975;28;20646;-55
2021/06/24 05:30:32;;;;;;;25.40;23.20;;;;;;;;;;4984729;28;20620;-55
2021/06/24 05:32:57;;;;;;;27.43;25.00;;;;;;;;;;4973369;28;20272;-55
2021/06/24 05:35:22;;;;;;;26.73;24.43;;;;;;;;;;4974348;28;20191;-55
2021/06/24 05:37:47;;;;;;;27.65;25.25;;;;;;;;;;4965294;28;20171;-55
2021/06/24 05:40:13;;;;;;;28.10;25.52;;;;;;;;;;4982698;28;20592;-56
2021/06/24 05:42:38;;;;;;;29.27;26.67;;;;;;;;;;4987697;28;20172;-55
2021/06/24 05:45:04;;;;;;;26.42;24.23;;;;;;;;;;4985001;28;20633;-56
2021/06/24 05:47:29;;;;;;;29.57;26.93;;;;;;;;;;4985267;28;20170;-55
2021/06/24 05:49:54;;;;;;;30.05;27.48;;;;;;;;;;4984966;28;20590;-55
2021/06/24 05:52:19;;;;;;;29.50;26.70;;;;;;;;;;4984889;28;20426;-55
2021/06/24 05:54:45;;;;;;;29.75;27.25;;;;;;;;;;4985547;28;20222;-55
2021/06/24 05:57:10;;;;;;;28.33;25.83;;;;;;;;;;4984245;28;20185;-56
2021/06/24 05:59:35;;;;;;;28.17;25.93;;;;;;;;;;4984953;28;20179;-56
2021/06/24 06:02:00;;;;;;;31.15;28.50;;;;;;;;;;4984313;28;20192;-57
2021/06/24 06:04:26;;;;;;;34.90;31.60;;;;;;;;;;4984481;28;20915;-54
2021/06/24 06:06:51;;;;;;;29.83;27.05;;;;;;;;;;4984091;28;20534;-55
2021/06/24 06:09:16;;;;;;;30.02;27.52;;;;;;;;;;4983613;28;20185;-55
2021/06/24 06:11:44;;;;;;;33.75;30.52;;;;;;;;;;4986427;28;20296;-55
2021/06/24 06:14:09;;;;;;;31.67;28.53;;;;;;;;;;4982669;28;20181;-55
2021/06/24 06:16:34;;;;;;;29.47;26.67;;;;;;;;;;4981499;28;20619;-57
2021/06/24 06:18:59;;;;;;;28.77;26.33;;;;;;;;;;4984341;28;20709;-57
2021/06/24 06:21:28;;;;;;;28.17;25.47;;;;;;;;;;4980408;28;20179;-55
2021/06/24 06:23:53;;;;;;;27.67;25.13;;;;;;;;;;4973635;28;20738;-55
2021/06/24 06:26:18;;;;;;;31.33;28.40;;;;;;;;;;4984721;28;21220;-56
2021/06/24 06:28:44;;;;;;;27.63;25.33;;;;;;;;;;4985719;28;20256;-56
2021/06/24 06:31:09;;;;;;;29.63;27.00;;;;;;;;;;4979752;28;20200;-55
2021/06/24 06:33:34;;;;;;;32.57;29.37;;;;;;;;;;4978178;28;20352;-56
2021/06/24 06:35:59;;;;;;;29.07;26.57;;;;;;;;;;4977819;28;20286;-56
2021/06/24 06:38:25;;;;;;;28.30;25.73;;;;;;;;;;4983783;28;20178;-56
2021/06/24 06:40:50;;;;;;;28.63;25.93;;;;;;;;;;4985795;28;20212;-56
2021/06/24 06:43:16;;;;;;;29.90;27.27;;;;;;;;;;4983291;28;20344;-57
2021/06/24 06:45:44;;;;;;;30.87;28.00;;;;;;;;;;4983094;28;20543;-56
2021/06/24 06:48:10;;;;;;;30.27;27.43;;;;;;;;;;4983711;28;20179;-56
2021/06/24 06:50:35;;;;;;;32.37;29.23;;;;;;;;;;4980034;28;20780;-57
2021/06/24 06:53:00;;;;;;;27.97;25.63;;;;;;;;;;4979149;28;20585;-57
2021/06/24 06:55:28;;;;;;;27.97;25.63;;;;;;;;;;4980111;28;20192;-57
2021/06/24 06:57:54;;;;;;;30.83;28.07;;;;;;;;;;4981250;28;20195;-56
2021/06/24 07:00:19;;;;;;;29.70;27.17;;;;;;;;;;4983277;28;20596;-56
2021/06/24 07:02:44;;;;;;;29.17;26.47;;;;;;;;;;4979264;28;20188;-56
2021/06/24 07:05:10;;;;;;;32.35;29.52;;;;;;;;;;4980171;28;20200;-56
2021/06/24 07:07:35;;;;;;;31.83;28.83;;;;;;;;;;4979056;28;20207;-56
2021/06/24 07:10:07;;;;;;;32.07;29.20;;;;;;;;;;4981725;28;20244;-56
2021/06/24 07:12:32;;;;;;;33.07;30.07;;;;;;;;;;4983982;28;20707;-56
2021/06/24 07:14:57;;;;;;;34.30;30.93;;;;;;;;;;4988746;28;20647;-56
2021/06/24 07:17:22;;;;;;;34.50;31.52;;;;;;;;;;4990960;28;20619;-56
2021/06/24 07:19:47;;;;;;;32.00;29.00;;;;;;;;;;4990307;28;20189;-56
2021/06/24 07:22:12;;;;;;;32.35;29.65;;;;;;;;;;4990011;28;20233;-56
2021/06/24 07:24:38;;;;;;;31.67;29.05;;;;;;;;;;4986439;28;20706;-57
2021/06/24 07:27:04;;;;;;;28.30;25.58;;;;;;;;;;4982470;28;20200;-56
2021/06/24 07:29:29;;;;;;;30.63;28.00;;;;;;;;;;4982797;28;20183;-56
2021/06/24 07:31:54;;;;;;;31.08;28.45;;;;;;;;;;4980600;28;20610;-57
2021/06/24 07:34:19;;;;;;;29.10;26.57;;;;;;;;;;4982307;28;20190;-56
2021/06/24 07:36:45;;;;;;;30.42;27.75;;;;;;;;;;4985825;28;20208;-55
2021/06/24 07:39:11;;;;;;;32.23;29.50;;;;;;;;;;4985606;28;20235;-56
2021/06/24 07:41:36;;;;;;;32.60;29.40;;;;;;;;;;4987402;28;20630;-56
2021/06/24 07:44:01;;;;;;;28.80;26.40;;;;;;;;;;4986301;28;20301;-55
2021/06/24 07:46:27;;;;;;;30.13;27.50;;;;;;;;;;4983561;28;20224;-56
2021/06/24 07:48:52;;;;;;;30.73;28.07;;;;;;;;;;4982465;28;20224;-57
2021/06/24 07:51:17;;;;;;;30.57;28.07;;;;;;;;;;4987940;28;20227;-58
2021/06/24 07:53:43;;;;;;;33.90;30.83;;;;;;;;;;4988861;28;20185;-58
2021/06/24 07:56:09;;;;;;;33.10;29.87;;;;;;;;;;4988590;28;20230;-56
2021/06/24 07:58:35;;;;;;;30.30;27.70;;;;;;;;;;4983998;28;20180;-56
2021/06/24 08:01:03;;;;;;;30.27;27.60;;;;;;;;;;4981515;28;20646;-58
2021/06/24 08:03:28;;;;;;;30.37;27.70;;;;;;;;;;4978929;28;20642;-57
2021/06/24 08:05:53;;;;;;;30.20;27.57;;;;;;;;;;4983035;28;20691;-56
2021/06/24 08:08:18;;;;;;;29.67;27.17;;;;;;;;;;4979666;28;20260;-57
2021/06/24 08:10:43;;;;;;;31.20;28.50;;;;;;;;;;4985130;28;20201;-57
2021/06/24 08:13:09;;;;;;;32.58;29.75;;;;;;;;;;4984186;28;20280;-56
2021/06/24 08:15:34;;;;;;;28.95;26.55;;;;;;;;;;4987187;28;20219;-57
2021/06/24 08:17:59;;;;;;;29.10;26.60;;;;;;;;;;4979726;28;20174;-57
2021/06/24 08:20:30;;;;;;;28.90;26.43;;;;;;;;;;4985264;28;20173;-57
2021/06/24 08:22:56;;;;;;;26.70;24.37;;;;;;;;;;4982363;28;20740;-57
2021/06/24 08:25:21;;;;;;;25.30;23.23;;;;;;;;;;4981181;28;20612;-57
2021/06/24 08:27:49;;;;;;;27.03;24.73;;;;;;;;;;4981246;28;20249;-57
2021/06/24 08:30:14;;;;;;;30.83;27.87;;;;;;;;;;4981867;28;20201;-57
2021/06/24 08:32:39;;;;;;;28.20;26.00;;;;;;;;;;4981297;28;20635;-57
2021/06/24 08:35:06;;;;;;;30.97;28.37;;;;;;;;;;4981256;28;20228;-57
2021/06/24 08:37:31;;;;;;;28.13;25.83;;;;;;;;;;5003545;28;20202;-57
2021/06/24 08:39:56;;;;;;;28.80;26.40;;;;;;;;;;4986716;28;20638;-57
2021/06/24 08:42:22;;;;;;;27.50;25.10;;;;;;;;;;4982103;28;20174;-57
2021/06/24 08:44:47;;;;;;;28.47;26.00;;;;;;;;;;4981485;28;20219;-57
2021/06/24 08:47:13;;;;;;;29.67;27.20;;;;;;;;;;4982106;28;20546;-57
2021/06/24 08:49:39;;;;;;;30.00;27.63;;;;;;;;;;4985241;28;20721;-57
2021/06/24 08:52:04;;;;;;;31.70;28.87;;;;;;;;;;4983683;28;20626;-57
2021/06/24 08:54:29;;;;;;;26.93;24.53;;;;;;;;;;4979886;28;20264;-56
2021/06/24 08:56:55;;;;;;;27.75;25.30;;;;;;;;;;4981385;28;20184;-57
2021/06/24 08:59:20;;;;;;;32.27;29.60;;;;;;;;;;4975094;28;20573;-57
2021/06/24 09:01:53;;;;;;;30.40;27.90;;;;;;;;;;4969291;28;20651;-56
2021/06/24 09:04:22;;;;;;;28.63;26.30;;;;;;;;;;4964376;28;20195;-57
2021/06/24 09:06:48;;;;;;;28.00;25.70;;;;;;;;;;4961443;28;20586;-56
2021/06/24 09:09:23;;;;;;;29.27;26.67;;;;;;;;;;4961304;28;20590;-56
2021/06/24 09:11:48;;;;;;;30.37;27.93;;;;;;;;;;4980505;28;20217;-57
2021/06/24 09:14:16;;;;;;;25.33;23.23;;;;;;;;;;4979128;28;20648;-57
2021/06/24 09:16:42;;;;;;;24.50;22.40;;;;;;;;;;4962420;28;20203;-56
2021/06/24 09:19:14;;;;;;;25.50;23.30;;;;;;;;;;4961930;28;20652;-56
2021/06/24 09:21:39;;;;;;;24.73;22.80;;;;;;;;;;4972339;28;20194;-57
2021/06/24 09:24:20;;;;;;;30.00;27.63;;;;;;;;;;4980647;28;20655;-57
2021/06/24 09:26:45;;;;;;;30.27;27.87;;;;;;;;;;4985375;28;20171;-56
2021/06/24 09:29:14;;;;;;;27.30;25.00;;;;;;;;;;4984951;28;20572;-56
2021/06/24 09:31:42;;;;;;;24.83;22.93;;;;;;;;;;4984460;28;20177;-57
2021/06/24 09:34:09;;;;;;;27.33;25.20;;;;;;;;;;4983418;28;20586;-58
2021/06/24 09:36:34;;;;;;;24.87;22.97;;;;;;;;;;4993126;28;20607;-58
2021/06/24 09:39:00;;;;;;;26.57;24.57;;;;;;;;;;4979187;28;21019;-58
2021/06/24 09:41:25;;;;;;;27.63;25.60;;;;;;;;;;4979279;28;20208;-58
2021/06/24 09:43:51;;;;;;;31.77;29.03;;;;;;;;;;4983681;28;20202;-58
2021/06/24 09:46:20;;;;;;;28.60;26.30;;;;;;;;;;4988660;28;20228;-56
2021/06/24 09:48:47;;;;;;;23.60;21.80;;;;;;;;;;4982087;28;20170;-58
2021/06/24 09:51:16;;;;;;;23.87;21.97;;;;;;;;;;4979320;28;20590;-58
2021/06/24 09:53:48;;;;;;;24.07;22.10;;;;;;;;;;4984185;28;21190;-58
2021/06/24 09:56:33;;;;;;;22.70;20.80;;;;;;;;;;4980952;28;20601;-57
2021/06/24 09:59:05;;;;;;;22.50;20.60;;;;;;;;;;4973853;28;20606;-58
2021/06/24 10:01:35;;;;;;;26.63;24.70;;;;;;;;;;4979533;28;20581;-57
2021/06/24 10:04:01;;;;;;;24.87;22.93;;;;;;;;;;4965328;28;20648;-58
2021/06/24 10:06:27;;;;;;;27.40;24.93;;;;;;;;;;4985955;28;21194;-59
2021/06/24 10:08:53;;;;;;;26.87;24.77;;;;;;;;;;4986574;28;20600;-57
2021/06/24 10:11:18;;;;;;;26.93;24.80;;;;;;;;;;4982082;28;20553;-56
2021/06/24 10:13:43;;;;;;;25.90;23.87;;;;;;;;;;4978671;28;20185;-58
2021/06/24 10:16:09;;;;;;;25.67;23.43;;;;;;;;;;4978540;28;20692;-58
2021/06/24 10:18:35;;;;;;;25.23;23.43;;;;;;;;;;4982358;28;20253;-59
2021/06/24 10:21:01;;;;;;;22.83;21.07;;;;;;;;;;4983978;28;20647;-57
2021/06/24 10:23:26;;;;;;;24.47;22.60;;;;;;;;;;4980844;28;20667;-58
2021/06/24 10:25:52;;;;;;;22.73;20.87;;;;;;;;;;4982291;28;20181;-58
2021/06/24 10:28:18;;;;;;;20.17;18.40;;;;;;;;;;4982629;28;20162;-58
2021/06/24 10:30:43;;;;;;;24.30;22.40;;;;;;;;;;4975850;28;20259;-59
2021/06/24 10:33:12;;;;;;;19.67;18.07;;;;;;;;;;4979845;28;20166;-59
2021/06/24 10:35:41;;;;;;;20.13;18.20;;;;;;;;;;4981244;28;20193;-58
2021/06/24 10:38:08;;;;;;;19.90;18.50;;;;;;;;;;4982866;28;20697;-59
2021/06/24 10:40:34;;;;;;;25.10;23.20;;;;;;;;;;4976027;28;20746;-58
2021/06/24 10:43:04;;;;;;;23.17;21.50;;;;;;;;;;4979493;28;21746;-58
2021/06/24 10:45:29;;;;;;;23.17;21.43;;;;;;;;;;4977463;28;20587;-62
2021/06/24 10:47:56;;;;;;;24.10;22.30;;;;;;;;;;4978909;28;20616;-58
2021/06/24 10:50:33;;;;;;;26.40;24.50;;;;;;;;;;4979845;28;20268;-59
2021/06/24 10:53:18;;;;;;;28.97;26.67;;;;;;;;;;4985490;28;20615;-59
2021/06/24 10:55:47;;;;;;;21.10;19.60;;;;;;;;;;4981886;28;20607;-58
2021/06/24 10:58:18;;;;;;;20.93;19.27;;;;;;;;;;4982872;28;20999;-59
2021/06/24 11:00:59;;;;;;;22.60;20.87;;;;;;;;;;4972660;28;20635;-58
2021/06/24 11:03:25;;;;;;;21.40;19.53;;;;;;;;;;4988852;28;20680;-58
2021/06/24 11:05:52;;;;;;;24.93;22.93;;;;;;;;;;4991574;28;21030;-58
2021/06/24 11:08:26;;;;;;;21.60;20.00;;;;;;;;;;4989965;28;20649;-58
2021/06/24 11:10:55;;;;;;;20.13;18.60;;;;;;;;;;4990215;28;20642;-58
2021/06/24 11:13:39;;;;;;;22.30;20.53;;;;;;;;;;4990071;28;20654;-58
2021/06/24 11:16:04;;;;;;;21.27;19.70;;;;;;;;;;4989085;28;21021;-59
2021/06/24 11:18:35;;;;;;;19.63;18.23;;;;;;;;;;4990549;28;20692;-58
2021/06/24 11:21:02;;;;;;;21.33;19.53;;;;;;;;;;4991435;28;20170;-59
2021/06/24 11:23:28;;;;;;;18.60;17.13;;;;;;;;;;4989306;28;20686;-57
2021/06/24 11:26:10;;;;;;;21.30;19.60;;;;;;;;;;4990824;28;20592;-58
2021/06/24 11:29:01;;;;;;;19.37;17.97;;;;;;;;;;4990980;28;20692;-58
2021/06/24 11:31:32;;;;;;;20.00;18.50;;;;;;;;;;4991361;28;20588;-58
2021/06/24 11:34:13;;;;;;;19.77;18.20;;;;;;;;;;4991436;28;20598;-58
2021/06/24 11:36:45;;;;;;;19.20;17.77;;;;;;;;;;4974356;28;20589;-59
2021/06/24 11:39:10;;;;;;;18.83;17.20;;;;;;;;;;4991250;28;20991;-59
2021/06/24 11:41:35;;;;;;;21.65;19.75;;;;;;;;;;4990829;28;21003;-59
2021/06/24 11:44:05;;;;;;;20.30;18.80;;;;;;;;;;4991012;28;20195;-59
2021/06/24 11:46:31;;;;;;;17.30;16.13;;;;;;;;;;4990862;28;20189;-59
2021/06/24 11:49:08;;;;;;;17.03;15.73;;;;;;;;;;4990713;28;20606;-59
2021/06/24 12:05:04;;;;;;;15.30;14.10;;;;;;;;;;4990593;28;21233;-57
2021/06/24 12:07:33;;;;;;;14.50;13.50;;;;;;;;;;4990464;28;20574;-58
2021/06/24 12:09:58;;;;;;;14.43;13.53;;;;;;;;;;4986524;28;20195;-58
2021/06/24 12:12:24;;;;;;;15.90;14.50;;;;;;;;;;4988290;28;20634;-58
2021/06/24 12:14:51;;;;;;;16.50;15.07;;;;;;;;;;4983363;28;20261;-58
2021/06/24 12:17:16;;;;;;;13.87;12.97;;;;;;;;;;4984683;28;20620;-58
2021/06/24 12:19:50;;;;;;;15.47;14.40;;;;;;;;;;4988743;28;20613;-57
2021/06/24 12:22:16;;;;;;;14.93;13.77;;;;;;;;;;4989737;28;20236;-58
2021/06/24 12:24:42;;;;;;;18.80;17.00;;;;;;;;;;4989031;28;21184;-58
2021/06/24 12:27:14;;;;;;;17.40;15.80;;;;;;;;;;4983852;28;20719;-57
2021/06/24 12:29:40;;;;;;;15.80;14.60;;;;;;;;;;4976242;28;20690;-58
2021/06/24 12:32:05;;;;;;;15.87;14.57;;;;;;;;;;4988898;28;20961;-58
2021/06/24 12:34:30;;;;;;;15.20;14.20;;;;;;;;;;4988462;28;20191;-58
2021/06/24 12:36:56;;;;;;;14.30;13.40;;;;;;;;;;4989425;28;20195;-58
2021/06/24 12:39:21;;;;;;;16.47;15.33;;;;;;;;;;4987405;28;20264;-59
2021/06/24 12:41:48;;;;;;;14.27;13.27;;;;;;;;;;4988390;28;20194;-58
2021/06/24 12:44:13;;;;;;;14.00;12.80;;;;;;;;;;4987178;28;20573;-58
2021/06/24 12:46:38;;;;;;;13.80;12.73;;;;;;;;;;4989486;28;20599;-58
2021/06/24 12:49:13;;;;;;;13.40;12.30;;;;;;;;;;4989345;28;20252;-59
2021/06/24 12:51:38;;;;;;;13.50;12.70;;;;;;;;;;4984822;28;20211;-59
2021/06/24 12:54:13;;;;;;;14.57;13.43;;;;;;;;;;4983575;28;21018;-59
2021/06/24 12:56:38;;;;;;;16.73;15.53;;;;;;;;;;4980304;28;20184;-58
2021/06/24 12:59:07;;;;;;;12.50;11.50;;;;;;;;;;4986756;28;20661;-58
2021/06/24 13:01:36;;;;;;;14.70;13.60;;;;;;;;;;4987050;28;20179;-59
2021/06/24 13:04:10;;;;;;;14.60;13.60;;;;;;;;;;4987816;28;20668;-59
2021/06/24 13:06:40;;;;;;;15.87;14.77;;;;;;;;;;4989152;28;20607;-59
2021/06/24 13:09:09;;;;;;;15.40;14.20;;;;;;;;;;4987802;28;20730;-59
2021/06/24 13:11:38;;;;;;;14.90;13.90;;;;;;;;;;4970826;28;20641;-58
2021/06/24 13:14:05;;;;;;;14.00;13.00;;;;;;;;;;4974552;28;20567;-58
2021/06/24 13:16:52;;;;;;;14.50;13.10;;;;;;;;;;4989296;28;20585;-58
2021/06/24 13:19:25;;;;;;;13.57;12.43;;;;;;;;;;4979678;28;20692;-58
2021/06/24 13:21:58;;;;;;;14.33;12.97;;;;;;;;;;4988044;28;20596;-58
2021/06/24 13:24:26;;;;;;;14.23;13.13;;;;;;;;;;4987774;28;21220;-59
2021/06/24 13:27:01;;;;;;;14.57;13.57;;;;;;;;;;4986334;28;20704;-58
2021/06/24 13:29:26;;;;;;;14.30;13.30;;;;;;;;;;4987619;28;20589;-58
2021/06/24 13:31:52;;;;;;;17.15;15.85;;;;;;;;;;4988631;28;20699;-58
2021/06/24 13:34:17;;;;;;;13.73;12.73;;;;;;;;;;4988223;28;20172;-58
2021/06/24 13:36:44;;;;;;;16.20;15.00;;;;;;;;;;4986955;28;21234;-59
2021/06/24 13:39:11;;;;;;;15.43;14.23;;;;;;;;;;4966953;28;20189;-59
2021/06/24 13:41:37;;;;;;;15.13;13.70;;;;;;;;;;4984904;28;20610;-59
2021/06/24 13:44:13;;;;;;;14.83;13.73;;;;;;;;;;4983021;28;20634;-59
2021/06/24 13:46:39;;;;;;;15.17;14.03;;;;;;;;;;4984462;28;20279;-57
2021/06/24 13:49:05;;;;;;;14.70;13.60;;;;;;;;;;4984554;28;20613;-58
2021/06/24 13:51:31;;;;;;;16.60;15.20;;;;;;;;;;4981290;28;20973;-59
2021/06/24 13:53:56;;;;;;;16.97;15.47;;;;;;;;;;4977437;28;21173;-59
2021/06/24 13:56:22;;;;;;;16.30;15.10;;;;;;;;;;4979080;28;20604;-57
2021/06/24 13:58:47;;;;;;;18.00;16.60;;;;;;;;;;4977687;28;20196;-57
2021/06/24 14:01:12;;;;;;;15.27;14.07;;;;;;;;;;4977850;28;20256;-57
2021/06/24 14:03:37;;;;;;;16.43;15.10;;;;;;;;;;4984882;28;20812;-58
2021/06/24 14:06:04;;;;;;;16.67;15.35;;;;;;;;;;4984580;28;20182;-59
2021/06/24 14:08:29;;;;;;;14.43;13.43;;;;;;;;;;4985328;28;20177;-59
2021/06/24 14:10:54;;;;;;;15.20;13.85;;;;;;;;;;4982157;28;21282;-59
2021/06/24 14:13:19;;;;;;;15.57;14.38;;;;;;;;;;4982849;28;20225;-59
2021/06/24 14:15:45;;;;;;;14.45;13.48;;;;;;;;;;4983942;28;20171;-59
2021/06/24 14:18:11;;;;;;;15.68;14.45;;;;;;;;;;4983522;28;20664;-58
2021/06/24 14:20:37;;;;;;;14.97;13.87;;;;;;;;;;4984805;28;20172;-57
2021/06/24 14:23:02;;;;;;;14.73;13.40;;;;;;;;;;4982143;28;20705;-65
2021/06/24 14:25:27;;;;;;;15.53;14.33;;;;;;;;;;4986791;28;21385;-73
2021/06/24 14:27:52;;;;;;;13.70;12.60;;;;;;;;;;4987810;28;20179;-68